Time;durP1;ratioP1;P1;durP2;ratioP2;P2;SDS_P1;SDS_P2;PMS_P1;PMS_P2;Temp;Humidity;BMP_temperature;BMP_pressure;BME280_temperature;BME280_humidity;BME280_pressure;Samples;Min_cycle;Max_cycle;Signal;HPM_P1;HPM_P2
2023/08/13 00:00:23;;;;;;;3.67;3.30;;;;;;;15.04;100.00;93434.06;2106706;28;20103;-80
2023/08/13 00:01:24;;;;;;;7.03;3.40;;;;;;;15.07;100.00;93430.50;2110536;28;20583;-80
2023/08/13 00:02:25;;;;;;;4.45;3.20;;;;;;;15.06;100.00;93433.63;2098079;28;20511;-81
2023/08/13 00:03:26;;;;;;;4.72;3.83;;;;;;;15.10;100.00;93434.25;2088547;28;20104;-81
2023/08/13 00:04:27;;;;;;;7.28;3.53;;;;;;;15.11;100.00;93427.69;2097778;28;20021;-80
2023/08/13 00:05:28;;;;;;;3.50;3.20;;;;;;;15.10;100.00;93432.31;2115040;28;20533;-81
2023/08/13 00:06:29;;;;;;;4.55;3.67;;;;;;;15.11;100.00;93430.38;2105963;28;20074;-80
2023/08/13 00:07:30;;;;;;;4.85;3.42;;;;;;;15.08;100.00;93431.25;2105626;28;20110;-80
2023/08/13 00:08:31;;;;;;;4.93;3.40;;;;;;;15.08;100.00;93432.00;2102736;28;20024;-81
2023/08/13 00:09:32;;;;;;;5.90;3.05;;;;;;;15.12;100.00;93431.88;2105943;28;20457;-81
2023/08/13 00:10:33;;;;;;;3.63;3.05;;;;;;;15.15;100.00;93436.41;2115509;28;20118;-80
2023/08/13 00:11:34;;;;;;;5.32;3.67;;;;;;;15.27;100.00;93434.84;2112159;28;20031;-80
2023/08/13 00:12:35;;;;;;;4.63;3.50;;;;;;;15.28;100.00;93431.72;2106060;28;20040;-80
2023/08/13 00:13:36;;;;;;;4.78;3.53;;;;;;;15.30;100.00;93436.66;2098149;28;20029;-80
2023/08/13 00:14:37;;;;;;;3.63;2.95;;;;;;;15.27;100.00;93432.13;2094978;28;20374;-80
2023/08/13 00:15:38;;;;;;;4.97;2.90;;;;;;;15.22;100.00;93433.44;2112694;28;20063;-80
2023/08/13 00:16:39;;;;;;;4.97;3.50;;;;;;;15.25;100.00;93435.28;2105945;28;20093;-80
2023/08/13 00:17:40;;;;;;;6.80;3.15;;;;;;;15.23;100.00;93431.50;2099740;28;20031;-81
2023/08/13 00:18:41;;;;;;;5.90;3.50;;;;;;;15.28;100.00;93429.03;2095920;28;20029;-80
2023/08/13 00:19:42;;;;;;;4.13;3.42;;;;;;;15.33;100.00;93422.31;2112961;28;20028;-80
2023/08/13 00:20:43;;;;;;;4.55;3.20;;;;;;;15.33;100.00;93423.06;2114654;28;20036;-81
2023/08/13 00:21:44;;;;;;;4.93;3.05;;;;;;;15.32;100.00;93429.66;2105840;28;20253;-81
2023/08/13 00:22:45;;;;;;;4.20;3.40;;;;;;;15.23;100.00;93423.44;2112603;28;20043;-81
2023/08/13 00:23:46;;;;;;;3.80;2.85;;;;;;;15.22;100.00;93424.63;2097983;28;20519;-81
2023/08/13 00:24:47;;;;;;;3.95;3.30;;;;;;;15.25;100.00;93426.44;2102223;28;20426;-80
2023/08/13 00:25:48;;;;;;;3.72;3.35;;;;;;;15.30;100.00;93428.56;2110564;28;20538;-80
2023/08/13 00:26:49;;;;;;;6.47;3.22;;;;;;;15.27;100.00;93424.06;2119369;27;20047;-81
2023/08/13 00:27:50;;;;;;;4.82;3.05;;;;;;;15.25;100.00;93426.44;2099727;28;20024;-81
2023/08/13 00:28:51;;;;;;;4.80;3.40;;;;;;;15.24;100.00;93423.00;2089711;28;20112;-80
2023/08/13 00:29:51;;;;;;;4.05;3.13;;;;;;;15.28;100.00;93420.19;2105741;28;20020;-81
2023/08/13 00:30:54;;;;;;;3.90;3.30;;;;;;;15.23;100.00;93421.50;2106493;28;20101;-80
2023/08/13 00:31:55;;;;;;;4.18;3.08;;;;;;;15.21;100.00;93423.88;2102034;28;20016;-80
2023/08/13 00:32:56;;;;;;;3.30;3.00;;;;;;;15.21;100.00;93420.44;2100452;28;20066;-81
2023/08/13 00:33:58;;;;;;;3.58;3.10;;;;;;;15.18;100.00;93424.75;2106183;28;20024;-80
2023/08/13 00:34:58;;;;;;;3.35;3.05;;;;;;;15.09;100.00;93422.72;2113614;28;20023;-81
2023/08/13 00:35:59;;;;;;;3.22;2.78;;;;;;;15.06;100.00;93420.94;2109857;28;20095;-80
2023/08/13 00:37:00;;;;;;;4.22;3.08;;;;;;;14.82;100.00;93417.88;2097881;28;20038;-80
2023/08/13 00:38:02;;;;;;;3.50;3.20;;;;;;;14.90;100.00;93415.69;2093684;28;20032;-80
2023/08/13 00:39:03;;;;;;;5.22;3.17;;;;;;;15.00;100.00;93419.97;2097734;28;20029;-80
2023/08/13 00:40:05;;;;;;;3.53;3.10;;;;;;;15.05;100.00;93413.25;2102939;28;20024;-80
2023/08/13 00:41:07;;;;;;;5.03;2.95;;;;;;;15.07;100.00;93422.41;2097150;28;20059;-80
2023/08/13 00:42:07;;;;;;;4.40;3.33;;;;;;;15.07;100.00;93419.72;2106560;28;20377;-81
2023/08/13 00:43:09;;;;;;;5.25;3.50;;;;;;;15.12;100.00;93418.41;2114791;28;20105;-81
2023/08/13 00:44:10;;;;;;;5.20;3.40;;;;;;;15.16;100.00;93419.06;2114739;28;20097;-81
2023/08/13 00:45:11;;;;;;;4.15;3.38;;;;;;;15.17;100.00;93415.16;2097428;28;20021;-81
2023/08/13 00:46:12;;;;;;;3.45;3.15;;;;;;;15.20;100.00;93421.63;2105760;28;20032;-80
2023/08/13 00:47:13;;;;;;;3.83;3.42;;;;;;;15.23;100.00;93421.50;2122931;27;20051;-81
2023/08/13 00:48:14;;;;;;;3.50;3.20;;;;;;;15.20;100.00;93430.47;2110658;28;20051;-80
2023/08/13 00:49:15;;;;;;;4.80;3.40;;;;;;;15.21;100.00;93425.81;2108718;28;20091;-80
2023/08/13 00:50:17;;;;;;;6.53;3.20;;;;;;;15.11;100.00;93430.38;2099493;28;20051;-80
2023/08/13 00:51:22;;;;;;;5.13;3.38;;;;;;;15.15;100.00;93430.28;2100400;28;20028;-80
2023/08/13 00:52:23;;;;;;;3.88;2.83;;;;;;;15.10;100.00;93429.63;2098537;28;20030;-81
2023/08/13 00:53:24;;;;;;;5.63;3.30;;;;;;;15.21;100.00;93428.50;2105629;28;20396;-80
2023/08/13 00:54:25;;;;;;;3.67;3.33;;;;;;;15.22;100.00;93430.00;2110991;28;20026;-80
2023/08/13 00:55:26;;;;;;;5.88;3.40;;;;;;;15.26;100.00;93422.56;2112241;28;20535;-80
2023/08/13 00:56:27;;;;;;;5.22;3.42;;;;;;;15.31;100.00;93424.69;2105331;28;20108;-81
2023/08/13 00:57:28;;;;;;;4.78;3.45;;;;;;;15.20;100.00;93422.38;2101430;28;20046;-81
2023/08/13 00:58:29;;;;;;;4.00;3.15;;;;;;;15.15;100.00;93427.56;2113986;28;20089;-81
2023/08/13 00:59:32;;;;;;;4.18;3.13;;;;;;;15.13;100.00;93424.56;2106064;28;20502;-81
2023/08/13 01:00:32;;;;;;;4.00;3.47;;;;;;;15.19;100.00;93425.50;2100690;28;20409;-81
2023/08/13 01:01:33;;;;;;;4.18;3.20;;;;;;;15.14;100.00;93421.41;2107481;28;20361;-81
2023/08/13 01:02:35;;;;;;;4.15;3.47;;;;;;;15.19;100.00;93422.78;2099637;28;20060;-81
2023/08/13 01:03:38;;;;;;;4.75;3.28;;;;;;;15.14;100.00;93420.66;2106763;28;20024;-81
2023/08/13 01:04:39;;;;;;;4.00;3.22;;;;;;;15.16;100.00;93424.44;2114140;28;20027;-81
2023/08/13 01:06:03;;;;;;;4.63;3.90;;;;;;;15.18;100.00;93427.44;2114533;28;20514;-81
2023/08/13 01:07:27;;;;;;;5.80;3.60;;;;;;;15.28;100.00;93420.19;2105311;28;20035;-81
2023/08/13 01:08:49;;;;;;;5.28;3.30;;;;;;;15.28;100.00;93426.34;2107340;28;20035;-81
2023/08/13 01:10:09;;;;;;;4.72;3.30;;;;;;;15.28;100.00;93426.34;2108687;28;20020;-81
2023/08/13 01:11:19;;;;;;;4.97;3.28;;;;;;;15.31;100.00;93425.44;2100167;28;20468;-81
2023/08/13 01:12:51;;;;;;;3.70;3.40;;;;;;;15.33;100.00;93428.47;2108075;28;20500;-81
2023/08/13 01:14:24;;;;;;;6.63;4.22;;;;;;;15.27;100.00;93430.19;2113313;28;20027;-81
2023/08/13 01:15:36;;;;;;;3.47;3.17;;;;;;;15.17;100.00;93436.72;2104132;28;20546;-81
2023/08/13 01:16:43;;;;;;;3.60;3.25;;;;;;;15.16;100.00;93429.06;2113888;28;20025;-81
2023/08/13 01:17:47;;;;;;;6.28;3.63;;;;;;;15.18;100.00;93442.84;2112180;27;20068;-81
2023/08/13 01:18:50;;;;;;;4.43;3.22;;;;;;;15.21;100.00;93431.94;2097155;28;20050;-81
2023/08/13 01:19:51;;;;;;;7.10;3.60;;;;;;;15.28;100.00;93430.97;2100449;28;20016;-81
2023/08/13 01:20:51;;;;;;;6.97;3.47;;;;;;;15.28;100.00;93428.28;2114763;28;20533;-81
2023/08/13 01:21:53;;;;;;;6.50;3.30;;;;;;;15.30;100.00;93426.63;2114923;28;20043;-81
2023/08/13 01:22:54;;;;;;;4.25;3.30;;;;;;;15.31;100.00;93419.31;2114397;28;20039;-81
2023/08/13 01:23:55;;;;;;;5.38;3.80;;;;;;;15.19;100.00;93417.41;2105400;28;20038;-81
2023/08/13 01:24:56;;;;;;;3.80;3.45;;;;;;;15.25;100.00;93418.38;2103364;28;20381;-81
2023/08/13 01:26:00;;;;;;;4.03;3.38;;;;;;;15.30;100.00;93420.50;2114246;28;20419;-81
2023/08/13 01:27:32;;;;;;;7.45;3.47;;;;;;;15.25;100.00;93421.81;2113484;28;20023;-81
2023/08/13 01:28:43;;;;;;;6.00;3.92;;;;;;;15.20;100.00;93417.00;2109474;28;20024;-80
2023/08/13 01:30:26;;;;;;;3.67;3.05;;;;;;;15.33;100.00;93419.63;2112544;28;20030;-81
2023/08/13 01:31:35;;;;;;;4.10;3.28;;;;;;;15.33;100.00;93416.94;2072261;28;20041;-81
2023/08/13 01:32:56;;;;;;;8.00;3.67;;;;;;;15.30;100.00;93415.13;2066901;28;20030;-81
2023/08/13 01:34:01;;;;;;;7.28;3.63;;;;;;;15.19;100.00;93420.09;2077707;28;20084;-81
2023/08/13 01:35:03;;;;;;;6.25;3.50;;;;;;;15.09;100.00;93420.03;2079970;28;20760;-81
2023/08/13 01:36:05;;;;;;;3.47;3.17;;;;;;;15.09;100.00;93427.34;2080628;28;20116;-80
2023/08/13 01:37:07;;;;;;;4.05;3.22;;;;;;;15.16;100.00;93429.81;2102292;28;20094;-80
2023/08/13 01:38:10;;;;;;;8.00;3.50;;;;;;;15.23;100.00;93418.81;2112492;28;20758;-80
2023/08/13 01:39:11;;;;;;;4.68;3.20;;;;;;;15.24;100.00;93414.19;2112696;28;20027;-80
2023/08/13 01:40:12;;;;;;;5.70;3.33;;;;;;;15.21;100.00;93409.66;2103317;28;20043;-81
2023/08/13 01:41:13;;;;;;;5.25;3.38;;;;;;;15.19;100.00;93410.09;2105823;28;20036;-81
2023/08/13 01:42:14;;;;;;;3.70;3.40;;;;;;;15.13;100.00;93405.72;2112685;28;20047;-80
2023/08/13 01:43:16;;;;;;;4.25;3.15;;;;;;;15.18;100.00;93402.44;2111981;28;20027;-80
2023/08/13 01:44:17;;;;;;;5.47;3.60;;;;;;;15.22;100.00;93413.84;2105868;28;20459;-81
2023/08/13 01:45:18;;;;;;;3.47;3.17;;;;;;;15.31;100.00;93411.97;2110045;28;20024;-80
2023/08/13 01:46:19;;;;;;;3.75;3.00;;;;;;;15.37;100.00;93401.41;2105544;28;20115;-80
2023/08/13 01:47:19;;;;;;;6.57;3.65;;;;;;;15.35;100.00;93401.06;2099131;28;20043;-80
2023/08/13 01:48:21;;;;;;;4.60;3.47;;;;;;;15.28;100.00;93404.03;2099350;28;20025;-80
2023/08/13 01:49:22;;;;;;;6.07;3.05;;;;;;;15.22;100.00;93400.38;2110112;28;20020;-80
2023/08/13 01:50:23;;;;;;;4.97;3.33;;;;;;;15.29;100.00;93408.97;2108969;28;20536;-80
2023/08/13 01:51:24;;;;;;;6.28;3.20;;;;;;;15.36;100.00;93413.34;2113878;28;20020;-81
2023/08/13 01:52:25;;;;;;;3.72;3.17;;;;;;;15.37;100.00;93412.19;2118831;27;20034;-80
2023/08/13 01:53:26;;;;;;;3.25;2.95;;;;;;;15.52;100.00;93413.16;2097018;28;20107;-81
2023/08/13 01:54:27;;;;;;;3.60;3.30;;;;;;;15.57;100.00;93409.91;2097216;28;20108;-80
2023/08/13 01:55:28;;;;;;;6.25;3.42;;;;;;;15.54;100.00;93402.72;2103015;28;20027;-80
2023/08/13 01:56:29;;;;;;;3.35;3.05;;;;;;;15.55;100.00;93409.59;2104312;28;20024;-81
2023/08/13 01:57:30;;;;;;;4.57;3.38;;;;;;;15.51;100.00;93408.22;2097236;28;20035;-80
2023/08/13 01:58:31;;;;;;;5.40;3.30;;;;;;;15.47;100.00;93412.97;2100905;28;20051;-81
2023/08/13 01:59:32;;;;;;;3.20;2.90;;;;;;;15.45;100.00;93402.66;2113710;28;20058;-80
2023/08/13 02:00:33;;;;;;;4.85;3.40;;;;;;;15.47;100.00;93410.28;2106248;28;20201;-81
2023/08/13 02:01:35;;;;;;;3.42;3.13;;;;;;;15.50;100.00;93404.78;2101134;28;20082;-80
2023/08/13 02:02:36;;;;;;;5.18;3.20;;;;;;;15.54;100.00;93404.63;2097195;28;20028;-81
2023/08/13 02:03:37;;;;;;;4.70;3.22;;;;;;;15.56;100.00;93407.66;2111342;28;20031;-81
2023/08/13 02:04:38;;;;;;;5.20;3.47;;;;;;;15.59;100.00;93406.78;2107866;28;20119;-80
2023/08/13 02:05:39;;;;;;;4.30;3.88;;;;;;;15.51;100.00;93408.22;2088374;28;20028;-80
2023/08/13 02:06:40;;;;;;;9.30;3.40;;;;;;;15.46;100.00;93420.31;2103048;28;20024;-80
2023/08/13 02:07:41;;;;;;;3.53;3.22;;;;;;;15.52;100.00;93407.78;2105846;28;20461;-80
2023/08/13 02:08:42;;;;;;;6.13;3.63;;;;;;;15.54;100.00;93418.09;2109768;28;20019;-80
2023/08/13 02:09:43;;;;;;;4.53;3.63;;;;;;;15.56;100.00;93408.41;2123087;27;20711;-80
2023/08/13 02:10:44;;;;;;;3.45;2.78;;;;;;;15.64;100.00;93400.06;2121268;27;20471;-81
2023/08/13 02:11:45;;;;;;;3.75;3.38;;;;;;;15.67;100.00;93397.28;2112089;28;20123;-80
2023/08/13 02:12:46;;;;;;;4.22;3.22;;;;;;;15.62;100.00;93403.94;2104088;28;20605;-80
2023/08/13 02:13:47;;;;;;;6.32;3.28;;;;;;;15.57;100.00;93398.38;2113092;28;20028;-80
2023/08/13 02:14:48;;;;;;;3.03;2.83;;;;;;;15.59;100.00;93396.75;2105191;28;20032;-80
2023/08/13 02:15:49;;;;;;;5.32;3.75;;;;;;;15.56;100.00;93403.00;2096407;28;20119;-80
2023/08/13 02:16:52;;;;;;;3.53;3.20;;;;;;;15.57;100.00;93393.72;2102539;28;20032;-80
2023/08/13 02:17:53;;;;;;;3.95;3.40;;;;;;;15.60;100.00;93400.94;2097378;28;20076;-80
2023/08/13 02:18:54;;;;;;;3.55;3.25;;;;;;;15.64;100.00;93405.47;2103107;28;20143;-80
2023/08/13 02:19:55;;;;;;;4.45;3.75;;;;;;;15.71;100.00;93395.19;2104479;28;20024;-80
2023/08/13 02:22:29;;;;;;;3.83;3.53;;;;;;;15.50;100.00;93404.78;2138440;27;20114;-79
2023/08/13 02:23:30;;;;;;;3.50;3.20;;;;;;;15.54;100.00;93402.72;2138592;27;20022;-80
2023/08/13 02:24:31;;;;;;;3.65;3.35;;;;;;;15.57;100.00;93398.38;2138039;27;20026;-80
2023/08/13 02:25:32;;;;;;;4.88;3.63;;;;;;;15.61;100.00;93399.75;2126840;27;20019;-79
2023/08/13 02:26:35;;;;;;;4.10;3.45;;;;;;;15.55;100.00;93401.50;2129145;27;20038;-79
2023/08/13 02:27:36;;;;;;;5.95;3.60;;;;;;;15.60;100.00;93403.63;2129714;27;20077;-79
2023/08/13 02:28:38;;;;;;;4.05;3.47;;;;;;;15.59;100.00;93399.44;2112496;28;20107;-79
2023/08/13 02:29:39;;;;;;;4.32;3.33;;;;;;;15.69;100.00;93410.31;2111363;28;20089;-79
2023/08/13 02:30:40;;;;;;;6.40;3.38;;;;;;;15.73;100.00;93408.22;2113056;28;20028;-80
2023/08/13 02:31:46;;;;;;;5.85;3.63;;;;;;;15.80;100.00;93408.72;2123988;27;20031;-79
2023/08/13 02:32:47;;;;;;;6.45;3.70;;;;;;;15.82;100.00;93405.56;2118076;28;20047;-79
2023/08/13 02:33:48;;;;;;;4.07;3.67;;;;;;;15.84;100.00;93389.69;2113595;27;20035;-80
2023/08/13 02:34:49;;;;;;;4.65;3.28;;;;;;;15.84;100.00;93392.41;2126442;27;20406;-79
2023/08/13 02:35:50;;;;;;;3.92;3.53;;;;;;;15.80;100.00;93383.69;2138460;27;20571;-79
2023/08/13 02:36:51;;;;;;;5.13;3.83;;;;;;;15.79;100.00;93385.63;2120400;28;20112;-79
2023/08/13 02:37:52;;;;;;;6.50;3.85;;;;;;;15.78;100.00;93392.22;2113023;27;20492;-80
2023/08/13 02:38:53;;;;;;;4.95;3.50;;;;;;;15.92;100.00;93392.88;2118249;28;20073;-80
2023/08/13 02:39:54;;;;;;;3.78;3.40;;;;;;;16.02;100.00;93392.50;2120449;27;20023;-80
2023/08/13 02:40:55;;;;;;;5.75;3.47;;;;;;;16.01;100.00;93390.97;2112528;28;20030;-79
2023/08/13 02:41:56;;;;;;;3.70;3.40;;;;;;;16.04;100.00;93394.75;2116386;28;20024;-79
2023/08/13 02:42:57;;;;;;;3.50;3.20;;;;;;;16.04;100.00;93392.78;2121021;28;20471;-79
2023/08/13 02:43:58;;;;;;;3.72;3.42;;;;;;;16.04;100.00;93394.75;2118417;28;20023;-79
2023/08/13 02:44:59;;;;;;;4.55;3.70;;;;;;;15.97;100.00;93395.75;2111568;28;20028;-79
2023/08/13 02:46:00;;;;;;;4.25;3.47;;;;;;;15.97;100.00;93395.00;2104433;28;20039;-79
2023/08/13 02:47:02;;;;;;;6.68;4.20;;;;;;;16.02;100.00;93392.50;2111734;28;20486;-80
2023/08/13 02:48:03;;;;;;;6.35;3.63;;;;;;;16.04;100.00;93390.09;2121101;27;20081;-79
2023/08/13 02:49:04;;;;;;;5.28;3.60;;;;;;;16.04;100.00;93386.66;2120435;28;20031;-79
2023/08/13 02:50:06;;;;;;;5.93;3.40;;;;;;;16.01;100.00;93390.97;2103851;28;20078;-80
2023/08/13 02:51:07;;;;;;;4.15;3.75;;;;;;;15.98;100.00;93381.09;2102934;28;20035;-79
2023/08/13 02:52:08;;;;;;;5.20;3.70;;;;;;;15.99;100.00;93373.75;2115137;28;20373;-79
2023/08/13 02:53:09;;;;;;;4.18;3.85;;;;;;;15.97;100.00;93374.19;2130263;27;20416;-79
2023/08/13 02:54:10;;;;;;;6.63;3.65;;;;;;;15.99;100.00;93377.19;2128467;27;20023;-78
2023/08/13 02:55:11;;;;;;;5.38;3.92;;;;;;;16.03;100.00;93369.72;2129226;27;20022;-79
2023/08/13 02:56:12;;;;;;;4.93;4.00;;;;;;;16.04;100.00;93379.31;2138837;27;20034;-79
2023/08/13 02:57:13;;;;;;;4.22;3.72;;;;;;;16.09;100.00;93372.59;2138138;27;20010;-78
2023/08/13 02:58:14;;;;;;;5.50;4.00;;;;;;;16.33;100.00;93375.50;2138321;27;20030;-80
2023/08/13 02:59:15;;;;;;;4.22;3.53;;;;;;;16.29;100.00;93378.34;2121900;28;20042;-79
2023/08/13 03:00:16;;;;;;;5.63;3.88;;;;;;;16.48;100.00;93373.75;2127407;27;20105;-79
2023/08/13 03:01:17;;;;;;;4.55;4.00;;;;;;;16.41;100.00;93373.28;2138956;27;20034;-79
2023/08/13 03:02:18;;;;;;;5.03;3.72;;;;;;;16.37;100.00;93373.41;2128537;27;20015;-79
2023/08/13 03:03:19;;;;;;;3.70;3.40;;;;;;;16.30;100.00;93371.00;2120504;28;20453;-79
2023/08/13 03:04:20;;;;;;;3.83;3.53;;;;;;;16.24;100.00;93368.16;2117412;28;20109;-79
2023/08/13 03:05:21;;;;;;;5.85;3.40;;;;;;;16.18;100.00;93358.38;2124129;27;20087;-79
2023/08/13 03:06:22;;;;;;;4.32;3.92;;;;;;;16.20;100.00;93364.84;2129344;27;20432;-79
2023/08/13 03:07:23;;;;;;;5.07;3.58;;;;;;;16.18;100.00;93361.06;2120322;27;20023;-79
2023/08/13 03:08:24;;;;;;;4.38;3.65;;;;;;;16.53;100.00;93372.41;2129102;27;20450;-79
2023/08/13 03:09:25;;;;;;;5.15;3.38;;;;;;;16.40;100.00;93369.06;2129458;27;20015;-78
2023/08/13 03:10:26;;;;;;;6.13;3.42;;;;;;;16.35;100.00;93367.72;2128946;27;20062;-78
2023/08/13 03:11:27;;;;;;;6.82;3.50;;;;;;;16.48;100.00;93364.91;2129835;27;20034;-79
2023/08/13 03:12:28;;;;;;;4.13;3.72;;;;;;;16.38;100.00;93360.69;2129532;27;20022;-78
2023/08/13 03:13:29;;;;;;;6.40;3.60;;;;;;;16.34;100.00;93360.81;2112061;28;20058;-79
2023/08/13 03:14:30;;;;;;;5.25;3.80;;;;;;;16.24;100.00;93356.59;2112731;27;20487;-79
2023/08/13 03:15:31;;;;;;;5.43;3.80;;;;;;;16.25;100.00;93356.16;2120274;27;20088;-79
2023/08/13 03:16:32;;;;;;;4.70;4.13;;;;;;;16.24;100.00;93356.59;2112343;28;20030;-79
2023/08/13 03:17:33;;;;;;;4.57;3.72;;;;;;;16.23;100.00;93353.16;2111010;28;20130;-79
2023/08/13 03:18:34;;;;;;;4.30;3.92;;;;;;;16.23;100.00;93360.50;2100333;28;20119;-79
2023/08/13 03:19:35;;;;;;;4.63;3.90;;;;;;;16.23;100.00;93349.69;2111173;28;20031;-79
2023/08/13 03:20:36;;;;;;;6.80;4.15;;;;;;;16.31;100.00;93348.97;2117441;27;20027;-79
2023/08/13 03:21:37;;;;;;;4.95;4.00;;;;;;;16.33;100.00;93353.91;2127110;27;20038;-79
2023/08/13 03:22:39;;;;;;;4.75;3.80;;;;;;;16.34;100.00;93352.75;2114201;28;20036;-79
2023/08/13 03:23:40;;;;;;;11.93;3.90;;;;;;;16.33;100.00;93349.28;2115476;27;20027;-79
2023/08/13 03:24:41;;;;;;;5.30;4.03;;;;;;;16.25;100.00;93350.75;2112906;28;20523;-78
2023/08/13 03:25:42;;;;;;;5.20;4.20;;;;;;;16.22;100.00;93348.22;2114032;28;20023;-78
2023/08/13 03:26:43;;;;;;;4.88;4.43;;;;;;;16.14;100.00;93346.97;2113526;27;20376;-79
2023/08/13 03:27:46;;;;;;;4.15;3.72;;;;;;;16.12;100.00;93350.13;2120727;28;20058;-79
2023/08/13 03:28:47;;;;;;;4.07;3.67;;;;;;;16.13;100.00;93354.31;2100955;28;20477;-78
2023/08/13 03:29:48;;;;;;;3.90;3.60;;;;;;;16.17;100.00;93351.50;2104279;28;20081;-78
2023/08/13 03:30:48;;;;;;;3.95;3.33;;;;;;;16.24;100.00;93351.19;2111598;28;20027;-78
2023/08/13 03:31:49;;;;;;;5.82;3.42;;;;;;;16.26;100.00;93351.50;2115992;27;20106;-79
2023/08/13 03:32:50;;;;;;;5.03;3.70;;;;;;;16.28;100.00;93349.09;2104498;28;20074;-79
2023/08/13 03:33:52;;;;;;;3.90;3.50;;;;;;;16.28;100.00;93341.00;2094165;28;20433;-79
2023/08/13 03:34:53;;;;;;;3.70;3.40;;;;;;;16.23;100.00;93352.41;2115362;27;20030;-79
2023/08/13 03:35:54;;;;;;;4.60;3.95;;;;;;;16.21;100.00;93346.72;2124111;27;20023;-79
2023/08/13 03:36:54;;;;;;;4.97;3.55;;;;;;;16.17;100.00;93348.78;2108429;28;20501;-79
2023/08/13 03:37:56;;;;;;;4.78;3.67;;;;;;;16.19;100.00;93354.47;2106679;28;20028;-79
2023/08/13 03:38:57;;;;;;;5.32;3.45;;;;;;;16.17;100.00;93351.50;2122862;27;20051;-80
2023/08/13 03:39:58;;;;;;;4.05;3.67;;;;;;;16.17;100.00;93344.16;2106558;28;20043;-79
2023/08/13 03:40:58;;;;;;;6.15;3.67;;;;;;;16.18;100.00;93345.63;2098403;28;20035;-79
2023/08/13 03:41:59;;;;;;;4.78;3.75;;;;;;;16.19;100.00;93341.00;2118660;27;20018;-79
2023/08/13 03:43:00;;;;;;;5.28;3.90;;;;;;;16.15;100.00;93341.13;2106522;28;20032;-79
2023/08/13 03:44:01;;;;;;;4.65;3.63;;;;;;;16.11;100.00;93335.13;2102933;28;20055;-79
2023/08/13 03:45:03;;;;;;;6.88;3.72;;;;;;;16.08;100.00;93339.47;2097696;28;20054;-79
2023/08/13 03:46:04;;;;;;;4.20;3.65;;;;;;;16.04;100.00;93346.97;2105423;28;20035;-78
2023/08/13 03:47:05;;;;;;;5.75;3.72;;;;;;;16.10;100.00;93345.16;2115405;27;20084;-81
2023/08/13 03:48:06;;;;;;;4.88;3.70;;;;;;;16.13;100.00;93348.19;2118328;27;20019;-82
2023/08/13 03:49:07;;;;;;;4.50;4.10;;;;;;;16.09;100.00;93340.97;2106370;28;20090;-82
2023/08/13 03:50:08;;;;;;;5.45;4.65;;;;;;;16.13;100.00;93342.78;2116133;27;20127;-82
2023/08/13 03:51:09;;;;;;;5.55;3.83;;;;;;;16.15;100.00;93351.16;2117134;27;20026;-82
2023/08/13 03:52:10;;;;;;;4.32;3.92;;;;;;;16.17;100.00;93338.00;2108566;28;20024;-82
2023/08/13 03:53:11;;;;;;;4.60;4.20;;;;;;;16.15;100.00;93343.81;2115025;28;20020;-82
2023/08/13 03:54:12;;;;;;;5.75;4.22;;;;;;;16.12;100.00;93347.44;2113496;28;20019;-82
2023/08/13 03:55:13;;;;;;;5.40;4.22;;;;;;;16.10;100.00;93344.41;2104224;28;20024;-81
2023/08/13 03:56:14;;;;;;;5.22;4.32;;;;;;;16.03;100.00;93342.75;2106870;28;20036;-81
2023/08/13 03:57:15;;;;;;;6.60;4.07;;;;;;;16.01;100.00;93350.53;2106060;28;20043;-79
2023/08/13 03:58:17;;;;;;;4.78;3.55;;;;;;;15.98;100.00;93354.13;2115167;28;20380;-79
2023/08/13 03:59:17;;;;;;;3.72;3.45;;;;;;;15.98;100.00;93354.13;2115573;27;20039;-79
2023/08/13 04:00:18;;;;;;;6.05;4.20;;;;;;;16.04;100.00;93360.44;2108793;28;20035;-79
2023/08/13 04:01:20;;;;;;;3.90;3.50;;;;;;;16.11;100.00;93354.78;2107072;28;20054;-82
2023/08/13 04:02:21;;;;;;;5.65;3.90;;;;;;;16.17;100.00;93356.88;2099548;28;20051;-82
2023/08/13 04:03:22;;;;;;;6.95;3.75;;;;;;;16.21;100.00;93358.25;2106241;27;20115;-82
2023/08/13 04:04:23;;;;;;;4.85;3.67;;;;;;;16.24;100.00;93357.38;2124340;27;20031;-81
2023/08/13 04:05:24;;;;;;;4.53;3.38;;;;;;;16.28;100.00;93355.25;2123612;27;20046;-81
2023/08/13 04:06:25;;;;;;;6.45;4.50;;;;;;;16.26;100.00;93362.31;2114907;28;20019;-81
2023/08/13 04:07:26;;;;;;;5.68;3.50;;;;;;;16.24;100.00;93359.28;2120429;27;20022;-81
2023/08/13 04:08:27;;;;;;;5.07;3.72;;;;;;;16.23;100.00;93361.22;2122830;27;20130;-81
2023/08/13 04:09:28;;;;;;;4.35;3.70;;;;;;;16.25;100.00;93363.50;2131997;27;20101;-81
2023/08/13 04:10:29;;;;;;;4.82;3.78;;;;;;;16.22;100.00;93359.75;2123371;27;20018;-81
2023/08/13 04:11:31;;;;;;;4.65;3.58;;;;;;;16.20;100.00;93366.75;2105975;28;20118;-82
2023/08/13 04:12:33;;;;;;;6.43;3.70;;;;;;;16.15;100.00;93373.50;2106017;28;20091;-82
2023/08/13 04:13:35;;;;;;;5.15;3.80;;;;;;;16.22;100.00;93375.19;2119760;27;20031;-81
2023/08/13 04:14:36;;;;;;;4.47;3.50;;;;;;;16.21;100.00;93368.28;2114548;28;20023;-82
2023/08/13 04:15:37;;;;;;;3.67;3.38;;;;;;;16.28;100.00;93373.38;2118998;27;20035;-82
2023/08/13 04:16:38;;;;;;;7.28;3.80;;;;;;;16.30;100.00;93374.44;2132474;27;20015;-82
2023/08/13 04:17:39;;;;;;;3.63;3.33;;;;;;;16.33;100.00;93365.47;2120639;27;20048;-81
2023/08/13 04:18:40;;;;;;;4.43;3.58;;;;;;;16.36;100.00;93369.22;2116821;27;20100;-82
2023/08/13 04:19:41;;;;;;;3.60;3.30;;;;;;;16.34;100.00;93366.97;2112476;28;20027;-82
2023/08/13 04:20:42;;;;;;;4.88;3.90;;;;;;;16.28;100.00;93374.13;2111491;27;20028;-82
2023/08/13 04:21:43;;;;;;;4.00;3.60;;;;;;;16.30;100.00;93381.78;2116128;27;20489;-82
2023/08/13 04:22:45;;;;;;;6.82;3.80;;;;;;;16.39;100.00;93379.13;2122703;27;20039;-82
2023/08/13 04:23:46;;;;;;;5.45;3.67;;;;;;;16.41;100.00;93381.38;2132087;27;20041;-82
2023/08/13 04:24:50;;;;;;;6.07;3.75;;;;;;;16.39;100.00;93376.41;2129255;27;20023;-82
2023/08/13 04:25:52;;;;;;;4.20;3.80;;;;;;;16.38;100.00;93368.78;2120701;27;20330;-82
2023/08/13 04:26:53;;;;;;;4.15;3.70;;;;;;;16.34;100.00;93361.56;2122946;27;20112;-82
2023/08/13 04:27:54;;;;;;;6.35;4.20;;;;;;;16.34;100.00;93361.56;2132392;27;20023;-80
2023/08/13 04:28:55;;;;;;;3.88;3.55;;;;;;;16.31;100.00;93367.84;2114095;28;20021;-79
2023/08/13 04:29:56;;;;;;;6.15;4.20;;;;;;;16.31;100.00;93375.94;2093569;28;20030;-79
2023/08/13 04:30:58;;;;;;;5.63;4.03;;;;;;;16.36;100.00;93382.69;2116809;27;20035;-79
2023/08/13 04:32:03;;;;;;;5.55;3.70;;;;;;;16.53;100.00;93380.50;2107746;28;20032;-79
2023/08/13 04:33:04;;;;;;;6.30;4.35;;;;;;;16.74;100.00;93387.75;2115551;27;20023;-79
2023/08/13 04:34:05;;;;;;;4.38;3.55;;;;;;;16.76;100.00;93385.34;2121120;27;20030;-78
2023/08/13 04:35:06;;;;;;;3.92;3.40;;;;;;;16.74;100.00;93385.06;2106204;28;20036;-79
2023/08/13 04:36:07;;;;;;;4.88;3.55;;;;;;;16.71;100.00;93385.16;2113786;28;20040;-79
2023/08/13 04:37:08;;;;;;;5.82;3.67;;;;;;;16.70;100.00;93380.97;2114119;27;20023;-79
2023/08/13 04:38:09;;;;;;;5.65;4.05;;;;;;;16.74;100.00;93387.00;2123264;27;20030;-79
2023/08/13 04:39:11;;;;;;;3.83;3.53;;;;;;;16.94;100.00;93371.09;2122472;27;20463;-79
2023/08/13 04:40:12;;;;;;;4.00;3.60;;;;;;;16.84;100.00;93369.63;2131647;27;20015;-79
2023/08/13 04:41:13;;;;;;;3.60;3.13;;;;;;;16.88;100.00;93369.47;2114442;28;20020;-79
2023/08/13 04:42:14;;;;;;;5.28;3.60;;;;;;;16.84;100.00;93375.00;2090892;28;20025;-79
2023/08/13 04:43:16;;;;;;;5.78;3.90;;;;;;;16.85;100.00;93371.84;2097921;28;20119;-79
2023/08/13 04:44:16;;;;;;;6.45;3.70;;;;;;;16.88;100.00;93372.16;2114327;28;20034;-80
2023/08/13 04:45:18;;;;;;;5.65;3.85;;;;;;;16.83;100.00;93373.53;2114037;28;20458;-79
2023/08/13 04:46:19;;;;;;;4.90;3.85;;;;;;;16.84;100.00;93375.75;2119515;27;20077;-79
2023/08/13 04:47:19;;;;;;;4.70;3.40;;;;;;;16.83;100.00;93376.22;2105584;28;20088;-79
2023/08/13 04:48:46;;;;;;;5.10;4.30;;;;;;;16.82;100.00;93377.44;2097841;28;20441;-81
2023/08/13 04:49:47;;;;;;;3.90;3.40;;;;;;;16.77;100.00;93376.06;2102308;28;20032;-81
2023/08/13 04:50:49;;;;;;;4.35;3.92;;;;;;;16.93;100.00;93366.91;2105354;28;20397;-79